sensor_id;sensor_type;location;lat;lon;timestamp;P1;durP1;ratioP1;P2;durP2;ratioP2
21816;SDS011;13247;47.504;7.382;2023-07-20T00:01:43;1.00;;;0.90;;
21816;SDS011;13247;47.504;7.382;2023-07-20T00:04:29;1.60;;;0.80;;
21816;SDS011;13247;47.504;7.382;2023-07-20T00:07:13;2.95;;;1.00;;
21816;SDS011;13247;47.504;7.382;2023-07-20T00:09:58;7.00;;;1.20;;
21816;SDS011;13247;47.504;7.382;2023-07-20T00:12:42;1.00;;;0.90;;
21816;SDS011;13247;47.504;7.382;2023-07-20T00:15:30;2.38;;;0.98;;
21816;SDS011;13247;47.504;7.382;2023-07-20T00:18:15;1.50;;;1.10;;
21816;SDS011;13247;47.504;7.382;2023-07-20T00:21:00;1.85;;;1.02;;
21816;SDS011;13247;47.504;7.382;2023-07-20T00:23:45;1.83;;;1.30;;
21816;SDS011;13247;47.504;7.382;2023-07-20T00:26:30;2.13;;;1.00;;
21816;SDS011;13247;47.504;7.382;2023-07-20T00:29:14;3.03;;;0.90;;
21816;SDS011;13247;47.504;7.382;2023-07-20T00:31:59;4.75;;;1.13;;
21816;SDS011;13247;47.504;7.382;2023-07-20T00:34:44;1.10;;;1.00;;
21816;SDS011;13247;47.504;7.382;2023-07-20T00:37:29;1.15;;;1.00;;
21816;SDS011;13247;47.504;7.382;2023-07-20T00:40:13;5.35;;;1.10;;
21816;SDS011;13247;47.504;7.382;2023-07-20T00:42:58;3.00;;;0.98;;
21816;SDS011;13247;47.504;7.382;2023-07-20T00:45:42;1.20;;;1.00;;
21816;SDS011;13247;47.504;7.382;2023-07-20T00:48:28;2.17;;;1.10;;
21816;SDS011;13247;47.504;7.382;2023-07-20T00:51:14;1.98;;;0.90;;
21816;SDS011;13247;47.504;7.382;2023-07-20T00:53:59;1.67;;;1.00;;
21816;SDS011;13247;47.504;7.382;2023-07-20T00:56:44;1.95;;;1.10;;
21816;SDS011;13247;47.504;7.382;2023-07-20T00:59:29;1.67;;;0.90;;
21816;SDS011;13247;47.504;7.382;2023-07-20T01:02:13;1.17;;;1.02;;
21816;SDS011;13247;47.504;7.382;2023-07-20T01:04:58;1.23;;;1.13;;
21816;SDS011;13247;47.504;7.382;2023-07-20T01:08:27;1.30;;;0.80;;
21816;SDS011;13247;47.504;7.382;2023-07-20T01:10:57;2.33;;;1.20;;
21816;SDS011;13247;47.504;7.382;2023-07-20T01:13:50;1.38;;;1.02;;
21816;SDS011;13247;47.504;7.382;2023-07-20T01:16:35;1.88;;;1.30;;
21816;SDS011;13247;47.504;7.382;2023-07-20T01:19:19;1.65;;;1.00;;
21816;SDS011;13247;47.504;7.382;2023-07-20T01:22:16;3.65;;;1.00;;
21816;SDS011;13247;47.504;7.382;2023-07-20T01:26:07;1.92;;;1.00;;
21816;SDS011;13247;47.504;7.382;2023-07-20T01:32:21;1.35;;;0.90;;
21816;SDS011;13247;47.504;7.382;2023-07-20T01:35:09;1.65;;;0.82;;
21816;SDS011;13247;47.504;7.382;2023-07-20T01:38:00;1.38;;;1.00;;
21816;SDS011;13247;47.504;7.382;2023-07-20T01:40:46;2.15;;;0.90;;
21816;SDS011;13247;47.504;7.382;2023-07-20T01:43:31;4.00;;;1.23;;
21816;SDS011;13247;47.504;7.382;2023-07-20T01:46:16;1.27;;;1.08;;
21816;SDS011;13247;47.504;7.382;2023-07-20T01:49:00;0.85;;;0.75;;
21816;SDS011;13247;47.504;7.382;2023-07-20T01:51:46;1.95;;;0.98;;
21816;SDS011;13247;47.504;7.382;2023-07-20T01:54:31;1.35;;;1.20;;
21816;SDS011;13247;47.504;7.382;2023-07-20T01:57:15;3.47;;;1.35;;
21816;SDS011;13247;47.504;7.382;2023-07-20T02:00:00;3.08;;;1.15;;
21816;SDS011;13247;47.504;7.382;2023-07-20T02:02:44;1.17;;;0.98;;
21816;SDS011;13247;47.504;7.382;2023-07-20T02:05:29;1.38;;;1.08;;
21816;SDS011;13247;47.504;7.382;2023-07-20T02:08:14;1.60;;;0.98;;
21816;SDS011;13247;47.504;7.382;2023-07-20T02:10:59;2.45;;;1.00;;
21816;SDS011;13247;47.504;7.382;2023-07-20T02:13:44;2.80;;;1.10;;
21816;SDS011;13247;47.504;7.382;2023-07-20T02:16:28;1.60;;;1.00;;
21816;SDS011;13247;47.504;7.382;2023-07-20T02:19:14;1.80;;;1.20;;
21816;SDS011;13247;47.504;7.382;2023-07-20T02:21:58;1.55;;;1.20;;
21816;SDS011;13247;47.504;7.382;2023-07-20T02:24:46;1.65;;;1.15;;
21816;SDS011;13247;47.504;7.382;2023-07-20T02:27:31;3.22;;;1.40;;
21816;SDS011;13247;47.504;7.382;2023-07-20T02:30:17;1.83;;;1.10;;
21816;SDS011;13247;47.504;7.382;2023-07-20T02:33:02;1.25;;;1.10;;
21816;SDS011;13247;47.504;7.382;2023-07-20T02:35:48;1.40;;;1.05;;
21816;SDS011;13247;47.504;7.382;2023-07-20T02:38:33;2.17;;;1.17;;
21816;SDS011;13247;47.504;7.382;2023-07-20T02:41:17;3.30;;;1.25;;
21816;SDS011;13247;47.504;7.382;2023-07-20T02:44:02;1.13;;;1.00;;
21816;SDS011;13247;47.504;7.382;2023-07-20T02:46:47;0.80;;;0.80;;
21816;SDS011;13247;47.504;7.382;2023-07-20T02:49:33;5.32;;;1.40;;
21816;SDS011;13247;47.504;7.382;2023-07-20T02:52:18;3.28;;;1.02;;
21816;SDS011;13247;47.504;7.382;2023-07-20T02:55:02;6.75;;;1.33;;
21816;SDS011;13247;47.504;7.382;2023-07-20T02:57:48;2.78;;;1.00;;
21816;SDS011;13247;47.504;7.382;2023-07-20T03:00:33;2.50;;;1.65;;
21816;SDS011;13247;47.504;7.382;2023-07-20T03:03:17;2.95;;;1.02;;
21816;SDS011;13247;47.504;7.382;2023-07-20T03:06:03;2.00;;;1.00;;
21816;SDS011;13247;47.504;7.382;2023-07-20T03:08:48;2.03;;;1.08;;
21816;SDS011;13247;47.504;7.382;2023-07-20T03:11:35;5.95;;;1.33;;
21816;SDS011;13247;47.504;7.382;2023-07-20T03:14:20;3.40;;;1.30;;
21816;SDS011;13247;47.504;7.382;2023-07-20T03:17:06;3.13;;;1.27;;
21816;SDS011;13247;47.504;7.382;2023-07-20T03:19:52;4.35;;;1.10;;
21816;SDS011;13247;47.504;7.382;2023-07-20T03:22:36;3.78;;;1.17;;
21816;SDS011;13247;47.504;7.382;2023-07-20T03:25:21;1.77;;;1.20;;
21816;SDS011;13247;47.504;7.382;2023-07-20T03:28:06;4.70;;;1.17;;
21816;SDS011;13247;47.504;7.382;2023-07-20T03:30:54;6.07;;;1.40;;
21816;SDS011;13247;47.504;7.382;2023-07-20T03:33:40;2.67;;;1.00;;
21816;SDS011;13247;47.504;7.382;2023-07-20T03:36:24;1.63;;;1.17;;
21816;SDS011;13247;47.504;7.382;2023-07-20T03:39:09;2.30;;;1.30;;
21816;SDS011;13247;47.504;7.382;2023-07-20T03:41:53;2.30;;;1.25;;
21816;SDS011;13247;47.504;7.382;2023-07-20T03:44:38;3.72;;;1.20;;
21816;SDS011;13247;47.504;7.382;2023-07-20T03:47:22;2.55;;;1.30;;
21816;SDS011;13247;47.504;7.382;2023-07-20T03:50:07;3.67;;;1.30;;
21816;SDS011;13247;47.504;7.382;2023-07-20T03:52:54;8.23;;;1.20;;
21816;SDS011;13247;47.504;7.382;2023-07-20T03:55:38;4.20;;;1.40;;
21816;SDS011;13247;47.504;7.382;2023-07-20T03:58:24;1.67;;;1.30;;
21816;SDS011;13247;47.504;7.382;2023-07-20T04:01:08;2.42;;;1.27;;
21816;SDS011;13247;47.504;7.382;2023-07-20T04:03:53;7.80;;;1.60;;
21816;SDS011;13247;47.504;7.382;2023-07-20T04:06:37;2.78;;;1.20;;
21816;SDS011;13247;47.504;7.382;2023-07-20T04:09:22;3.97;;;1.42;;
21816;SDS011;13247;47.504;7.382;2023-07-20T04:12:07;2.63;;;0.95;;
21816;SDS011;13247;47.504;7.382;2023-07-20T04:14:51;1.98;;;1.10;;
21816;SDS011;13247;47.504;7.382;2023-07-20T04:17:36;4.10;;;1.20;;
21816;SDS011;13247;47.504;7.382;2023-07-20T04:20:21;4.22;;;1.40;;
21816;SDS011;13247;47.504;7.382;2023-07-20T04:23:06;1.90;;;1.42;;
21816;SDS011;13247;47.504;7.382;2023-07-20T04:25:50;2.20;;;1.20;;
21816;SDS011;13247;47.504;7.382;2023-07-20T04:28:36;2.78;;;1.30;;
21816;SDS011;13247;47.504;7.382;2023-07-20T04:31:20;3.35;;;1.30;;
21816;SDS011;13247;47.504;7.382;2023-07-20T04:34:05;1.70;;;1.45;;
21816;SDS011;13247;47.504;7.382;2023-07-20T04:36:50;1.50;;;1.20;;
21816;SDS011;13247;47.504;7.382;2023-07-20T04:39:34;5.38;;;1.10;;
21816;SDS011;13247;47.504;7.382;2023-07-20T04:42:19;4.13;;;1.23;;
21816;SDS011;13247;47.504;7.382;2023-07-20T04:45:04;5.28;;;1.45;;
21816;SDS011;13247;47.504;7.382;2023-07-20T04:47:49;6.93;;;1.40;;
21816;SDS011;13247;47.504;7.382;2023-07-20T04:50:34;2.00;;;1.42;;
21816;SDS011;13247;47.504;7.382;2023-07-20T04:53:19;1.88;;;1.30;;
21816;SDS011;13247;47.504;7.382;2023-07-20T04:56:03;1.38;;;1.27;;
21816;SDS011;13247;47.504;7.382;2023-07-20T04:58:48;1.52;;;1.20;;
21816;SDS011;13247;47.504;7.382;2023-07-20T05:01:33;2.05;;;1.45;;
21816;SDS011;13247;47.504;7.382;2023-07-20T05:04:17;3.22;;;1.58;;
21816;SDS011;13247;47.504;7.382;2023-07-20T05:07:02;2.00;;;1.30;;
21816;SDS011;13247;47.504;7.382;2023-07-20T05:09:47;4.95;;;1.70;;
21816;SDS011;13247;47.504;7.382;2023-07-20T05:12:32;2.13;;;1.65;;
21816;SDS011;13247;47.504;7.382;2023-07-20T05:15:16;7.35;;;1.48;;
21816;SDS011;13247;47.504;7.382;2023-07-20T05:18:01;3.70;;;1.63;;
21816;SDS011;13247;47.504;7.382;2023-07-20T05:20:49;3.78;;;1.42;;
21816;SDS011;13247;47.504;7.382;2023-07-20T05:23:34;2.30;;;1.77;;
21816;SDS011;13247;47.504;7.382;2023-07-20T05:26:19;3.03;;;1.70;;
21816;SDS011;13247;47.504;7.382;2023-07-20T05:29:03;3.50;;;1.27;;
21816;SDS011;13247;47.504;7.382;2023-07-20T05:31:48;3.28;;;1.40;;
21816;SDS011;13247;47.504;7.382;2023-07-20T05:34:33;2.50;;;1.38;;
21816;SDS011;13247;47.504;7.382;2023-07-20T05:37:18;3.72;;;1.50;;
21816;SDS011;13247;47.504;7.382;2023-07-20T05:40:03;1.88;;;1.38;;
21816;SDS011;13247;47.504;7.382;2023-07-20T05:42:48;3.03;;;1.30;;
21816;SDS011;13247;47.504;7.382;2023-07-20T05:45:36;3.03;;;1.45;;
21816;SDS011;13247;47.504;7.382;2023-07-20T05:48:20;1.50;;;1.30;;
21816;SDS011;13247;47.504;7.382;2023-07-20T05:51:05;3.22;;;1.77;;
21816;SDS011;13247;47.504;7.382;2023-07-20T05:53:50;1.33;;;1.23;;
21816;SDS011;13247;47.504;7.382;2023-07-20T05:56:34;2.70;;;1.45;;
21816;SDS011;13247;47.504;7.382;2023-07-20T05:59:19;4.50;;;1.67;;
21816;SDS011;13247;47.504;7.382;2023-07-20T06:02:05;1.90;;;1.30;;
21816;SDS011;13247;47.504;7.382;2023-07-20T06:04:51;1.52;;;1.30;;
21816;SDS011;13247;47.504;7.382;2023-07-20T06:07:38;1.70;;;1.10;;
21816;SDS011;13247;47.504;7.382;2023-07-20T06:10:23;3.70;;;1.40;;
21816;SDS011;13247;47.504;7.382;2023-07-20T06:13:08;2.60;;;1.58;;
21816;SDS011;13247;47.504;7.382;2023-07-20T06:15:53;7.55;;;1.48;;
21816;SDS011;13247;47.504;7.382;2023-07-20T06:18:38;1.95;;;1.13;;
21816;SDS011;13247;47.504;7.382;2023-07-20T06:21:23;2.17;;;1.30;;
21816;SDS011;13247;47.504;7.382;2023-07-20T06:24:08;1.75;;;1.13;;
21816;SDS011;13247;47.504;7.382;2023-07-20T06:26:52;2.65;;;1.48;;
21816;SDS011;13247;47.504;7.382;2023-07-20T06:29:37;3.78;;;1.33;;
21816;SDS011;13247;47.504;7.382;2023-07-20T06:32:22;3.58;;;1.27;;
21816;SDS011;13247;47.504;7.382;2023-07-20T06:35:06;6.05;;;1.55;;
21816;SDS011;13247;47.504;7.382;2023-07-20T06:37:52;1.35;;;0.98;;
21816;SDS011;13247;47.504;7.382;2023-07-20T06:40:37;2.30;;;1.25;;
21816;SDS011;13247;47.504;7.382;2023-07-20T06:43:22;7.47;;;1.20;;
21816;SDS011;13247;47.504;7.382;2023-07-20T06:46:06;2.13;;;1.15;;
21816;SDS011;13247;47.504;7.382;2023-07-20T06:48:51;2.00;;;1.27;;
21816;SDS011;13247;47.504;7.382;2023-07-20T06:51:36;4.55;;;1.50;;
21816;SDS011;13247;47.504;7.382;2023-07-20T06:54:20;5.97;;;1.33;;
21816;SDS011;13247;47.504;7.382;2023-07-20T06:57:05;2.05;;;1.35;;
21816;SDS011;13247;47.504;7.382;2023-07-20T06:59:49;4.88;;;1.50;;
21816;SDS011;13247;47.504;7.382;2023-07-20T07:02:34;4.13;;;1.90;;
21816;SDS011;13247;47.504;7.382;2023-07-20T07:05:19;6.53;;;1.58;;
21816;SDS011;13247;47.504;7.382;2023-07-20T07:08:04;1.92;;;1.60;;
21816;SDS011;13247;47.504;7.382;2023-07-20T07:10:50;4.53;;;1.67;;
21816;SDS011;13247;47.504;7.382;2023-07-20T07:13:35;2.47;;;1.73;;
21816;SDS011;13247;47.504;7.382;2023-07-20T07:16:20;3.80;;;1.83;;
21816;SDS011;13247;47.504;7.382;2023-07-20T07:19:05;6.03;;;1.80;;
21816;SDS011;13247;47.504;7.382;2023-07-20T07:21:52;3.65;;;1.70;;
21816;SDS011;13247;47.504;7.382;2023-07-20T07:24:36;7.80;;;2.03;;
21816;SDS011;13247;47.504;7.382;2023-07-20T07:27:21;6.22;;;1.98;;
21816;SDS011;13247;47.504;7.382;2023-07-20T07:30:06;3.58;;;2.17;;
21816;SDS011;13247;47.504;7.382;2023-07-20T07:32:51;3.17;;;1.70;;
21816;SDS011;13247;47.504;7.382;2023-07-20T07:35:36;4.32;;;2.00;;
21816;SDS011;13247;47.504;7.382;2023-07-20T07:38:21;4.45;;;1.40;;
21816;SDS011;13247;47.504;7.382;2023-07-20T07:41:05;3.28;;;1.70;;
21816;SDS011;13247;47.504;7.382;2023-07-20T07:43:50;3.15;;;1.92;;
21816;SDS011;13247;47.504;7.382;2023-07-20T07:46:34;3.25;;;1.88;;
21816;SDS011;13247;47.504;7.382;2023-07-20T07:49:19;3.65;;;1.70;;
21816;SDS011;13247;47.504;7.382;2023-07-20T07:52:04;8.45;;;1.83;;
21816;SDS011;13247;47.504;7.382;2023-07-20T07:54:49;3.60;;;2.25;;
21816;SDS011;13247;47.504;7.382;2023-07-20T07:57:33;4.45;;;1.70;;
21816;SDS011;13247;47.504;7.382;2023-07-20T08:00:18;3.15;;;1.98;;
21816;SDS011;13247;47.504;7.382;2023-07-20T08:03:03;4.28;;;2.00;;
21816;SDS011;13247;47.504;7.382;2023-07-20T08:05:49;2.35;;;1.60;;
21816;SDS011;13247;47.504;7.382;2023-07-20T08:08:34;4.30;;;1.80;;
21816;SDS011;13247;47.504;7.382;2023-07-20T08:11:18;2.35;;;1.45;;
21816;SDS011;13247;47.504;7.382;2023-07-20T08:14:03;10.65;;;2.20;;
21816;SDS011;13247;47.504;7.382;2023-07-20T08:16:48;3.70;;;1.90;;
21816;SDS011;13247;47.504;7.382;2023-07-20T08:19:33;3.15;;;1.80;;
21816;SDS011;13247;47.504;7.382;2023-07-20T08:22:18;6.80;;;1.80;;
21816;SDS011;13247;47.504;7.382;2023-07-20T08:25:03;2.40;;;1.50;;
21816;SDS011;13247;47.504;7.382;2023-07-20T08:27:48;3.28;;;1.90;;
21816;SDS011;13247;47.504;7.382;2023-07-20T08:30:43;5.60;;;1.80;;
21816;SDS011;13247;47.504;7.382;2023-07-20T08:33:29;2.85;;;1.77;;
21816;SDS011;13247;47.504;7.382;2023-07-20T08:36:17;5.07;;;1.90;;
21816;SDS011;13247;47.504;7.382;2023-07-20T08:39:02;3.42;;;1.60;;
21816;SDS011;13247;47.504;7.382;2023-07-20T08:41:47;3.25;;;1.60;;
21816;SDS011;13247;47.504;7.382;2023-07-20T08:44:32;6.93;;;1.80;;
21816;SDS011;13247;47.504;7.382;2023-07-20T08:47:18;2.25;;;1.40;;
21816;SDS011;13247;47.504;7.382;2023-07-20T08:50:04;3.83;;;1.60;;
21816;SDS011;13247;47.504;7.382;2023-07-20T08:52:51;3.60;;;1.50;;
21816;SDS011;13247;47.504;7.382;2023-07-20T08:55:37;3.90;;;2.00;;
21816;SDS011;13247;47.504;7.382;2023-07-20T08:58:23;5.53;;;2.05;;
21816;SDS011;13247;47.504;7.382;2023-07-20T09:01:10;7.72;;;1.80;;
21816;SDS011;13247;47.504;7.382;2023-07-20T09:03:56;2.58;;;1.67;;
21816;SDS011;13247;47.504;7.382;2023-07-20T09:06:41;4.40;;;2.10;;
21816;SDS011;13247;47.504;7.382;2023-07-20T09:09:26;4.15;;;1.77;;
21816;SDS011;13247;47.504;7.382;2023-07-20T09:12:14;5.70;;;1.70;;
21816;SDS011;13247;47.504;7.382;2023-07-20T09:15:00;1.92;;;1.60;;
21816;SDS011;13247;47.504;7.382;2023-07-20T09:17:46;5.30;;;2.05;;
21816;SDS011;13247;47.504;7.382;2023-07-20T09:20:32;3.35;;;1.80;;
21816;SDS011;13247;47.504;7.382;2023-07-20T09:23:18;5.75;;;1.63;;
21816;SDS011;13247;47.504;7.382;2023-07-20T09:26:12;5.05;;;1.60;;
21816;SDS011;13247;47.504;7.382;2023-07-20T09:29:00;2.90;;;1.60;;
21816;SDS011;13247;47.504;7.382;2023-07-20T09:32:01;10.73;;;1.90;;
21816;SDS011;13247;47.504;7.382;2023-07-20T09:34:47;2.33;;;1.77;;
21816;SDS011;13247;47.504;7.382;2023-07-20T09:37:35;6.10;;;1.75;;
21816;SDS011;13247;47.504;7.382;2023-07-20T09:40:20;2.45;;;1.70;;
21816;SDS011;13247;47.504;7.382;2023-07-20T09:43:07;3.35;;;1.90;;
21816;SDS011;13247;47.504;7.382;2023-07-20T09:45:53;5.70;;;2.08;;
21816;SDS011;13247;47.504;7.382;2023-07-20T09:48:48;3.55;;;1.60;;
21816;SDS011;13247;47.504;7.382;2023-07-20T09:51:39;4.50;;;1.83;;
21816;SDS011;13247;47.504;7.382;2023-07-20T09:54:26;2.15;;;1.70;;
21816;SDS011;13247;47.504;7.382;2023-07-20T09:57:12;2.30;;;1.77;;
21816;SDS011;13247;47.504;7.382;2023-07-20T09:59:59;5.72;;;2.13;;
21816;SDS011;13247;47.504;7.382;2023-07-20T10:02:45;4.53;;;1.45;;
21816;SDS011;13247;47.504;7.382;2023-07-20T10:05:35;4.60;;;1.85;;
21816;SDS011;13247;47.504;7.382;2023-07-20T10:08:27;5.32;;;1.45;;
21816;SDS011;13247;47.504;7.382;2023-07-20T10:11:15;4.95;;;1.65;;
21816;SDS011;13247;47.504;7.382;2023-07-20T10:14:00;4.00;;;1.60;;
21816;SDS011;13247;47.504;7.382;2023-07-20T10:16:55;1.90;;;1.40;;
21816;SDS011;13247;47.504;7.382;2023-07-20T10:19:48;6.10;;;1.88;;
21816;SDS011;13247;47.504;7.382;2023-07-20T10:22:37;4.95;;;2.13;;
21816;SDS011;13247;47.504;7.382;2023-07-20T10:25:23;3.58;;;1.50;;
21816;SDS011;13247;47.504;7.382;2023-07-20T10:28:08;4.90;;;1.83;;
21816;SDS011;13247;47.504;7.382;2023-07-20T10:30:55;7.97;;;1.70;;
21816;SDS011;13247;47.504;7.382;2023-07-20T10:33:40;4.15;;;1.58;;
21816;SDS011;13247;47.504;7.382;2023-07-20T10:36:26;2.60;;;1.88;;
21816;SDS011;13247;47.504;7.382;2023-07-20T10:39:24;2.65;;;1.42;;
21816;SDS011;13247;47.504;7.382;2023-07-20T10:42:11;2.70;;;1.60;;
21816;SDS011;13247;47.504;7.382;2023-07-20T10:44:55;5.68;;;1.60;;
21816;SDS011;13247;47.504;7.382;2023-07-20T10:47:46;4.85;;;1.70;;
21816;SDS011;13247;47.504;7.382;2023-07-20T10:50:35;3.60;;;1.52;;
21816;SDS011;13247;47.504;7.382;2023-07-20T10:53:20;3.38;;;1.50;;
21816;SDS011;13247;47.504;7.382;2023-07-20T10:56:05;3.20;;;1.35;;
21816;SDS011;13247;47.504;7.382;2023-07-20T10:58:55;5.43;;;1.52;;
21816;SDS011;13247;47.504;7.382;2023-07-20T11:01:44;2.73;;;1.20;;
21816;SDS011;13247;47.504;7.382;2023-07-20T11:07:36;3.45;;;1.70;;
21816;SDS011;13247;47.504;7.382;2023-07-20T11:10:24;2.75;;;1.80;;
21816;SDS011;13247;47.504;7.382;2023-07-20T11:13:16;3.17;;;1.63;;
21816;SDS011;13247;47.504;7.382;2023-07-20T11:16:02;1.48;;;1.20;;
21816;SDS011;13247;47.504;7.382;2023-07-20T11:18:48;5.45;;;1.40;;
21816;SDS011;13247;47.504;7.382;2023-07-20T11:21:37;2.78;;;1.65;;
21816;SDS011;13247;47.504;7.382;2023-07-20T11:24:24;2.25;;;1.50;;
21816;SDS011;13247;47.504;7.382;2023-07-20T11:27:09;3.17;;;1.60;;
21816;SDS011;13247;47.504;7.382;2023-07-20T11:29:53;2.22;;;1.45;;
21816;SDS011;13247;47.504;7.382;2023-07-20T11:32:47;5.63;;;1.60;;
21816;SDS011;13247;47.504;7.382;2023-07-20T11:35:35;1.90;;;1.33;;
21816;SDS011;13247;47.504;7.382;2023-07-20T11:38:25;3.60;;;1.63;;
21816;SDS011;13247;47.504;7.382;2023-07-20T11:41:10;3.33;;;1.33;;
21816;SDS011;13247;47.504;7.382;2023-07-20T11:43:56;5.35;;;1.52;;
21816;SDS011;13247;47.504;7.382;2023-07-20T11:46:42;2.80;;;1.52;;
21816;SDS011;13247;47.504;7.382;2023-07-20T11:49:28;4.57;;;1.50;;
21816;SDS011;13247;47.504;7.382;2023-07-20T11:52:16;3.00;;;1.27;;
21816;SDS011;13247;47.504;7.382;2023-07-20T11:55:01;1.63;;;1.30;;
21816;SDS011;13247;47.504;7.382;2023-07-20T12:01:01;4.80;;;1.50;;
21816;SDS011;13247;47.504;7.382;2023-07-20T12:03:47;4.25;;;1.73;;
21816;SDS011;13247;47.504;7.382;2023-07-20T12:06:33;4.07;;;1.35;;
21816;SDS011;13247;47.504;7.382;2023-07-20T12:09:18;5.90;;;1.60;;
21816;SDS011;13247;47.504;7.382;2023-07-20T12:12:08;3.55;;;1.38;;
21816;SDS011;13247;47.504;7.382;2023-07-20T12:14:55;2.25;;;1.50;;
21816;SDS011;13247;47.504;7.382;2023-07-20T12:18:15;3.72;;;1.40;;
21816;SDS011;13247;47.504;7.382;2023-07-20T12:21:00;6.20;;;1.45;;
21816;SDS011;13247;47.504;7.382;2023-07-20T12:23:45;3.53;;;1.38;;
21816;SDS011;13247;47.504;7.382;2023-07-20T12:26:30;4.57;;;1.63;;
21816;SDS011;13247;47.504;7.382;2023-07-20T12:29:16;2.65;;;1.65;;
21816;SDS011;13247;47.504;7.382;2023-07-20T12:32:00;5.38;;;1.52;;
21816;SDS011;13247;47.504;7.382;2023-07-20T12:34:45;2.38;;;1.50;;
21816;SDS011;13247;47.504;7.382;2023-07-20T12:37:29;2.53;;;1.77;;
21816;SDS011;13247;47.504;7.382;2023-07-20T12:40:14;1.55;;;1.35;;
21816;SDS011;13247;47.504;7.382;2023-07-20T12:42:59;3.03;;;1.50;;
21816;SDS011;13247;47.504;7.382;2023-07-20T12:45:44;1.95;;;1.35;;
21816;SDS011;13247;47.504;7.382;2023-07-20T12:48:29;3.03;;;1.50;;
21816;SDS011;13247;47.504;7.382;2023-07-20T12:51:14;3.15;;;1.63;;
21816;SDS011;13247;47.504;7.382;2023-07-20T12:53:59;2.45;;;1.30;;
21816;SDS011;13247;47.504;7.382;2023-07-20T12:56:44;1.45;;;1.20;;
21816;SDS011;13247;47.504;7.382;2023-07-20T12:59:29;1.23;;;1.10;;
21816;SDS011;13247;47.504;7.382;2023-07-20T13:02:13;2.15;;;1.48;;
21816;SDS011;13247;47.504;7.382;2023-07-20T13:04:58;1.55;;;1.20;;
21816;SDS011;13247;47.504;7.382;2023-07-20T13:07:43;5.13;;;1.50;;
21816;SDS011;13247;47.504;7.382;2023-07-20T13:10:29;1.95;;;1.30;;
21816;SDS011;13247;47.504;7.382;2023-07-20T13:13:14;3.17;;;1.63;;
21816;SDS011;13247;47.504;7.382;2023-07-20T13:15:59;1.83;;;1.42;;
21816;SDS011;13247;47.504;7.382;2023-07-20T13:18:44;5.68;;;1.55;;
21816;SDS011;13247;47.504;7.382;2023-07-20T13:21:28;2.08;;;1.48;;
21816;SDS011;13247;47.504;7.382;2023-07-20T13:24:13;3.05;;;1.20;;
21816;SDS011;13247;47.504;7.382;2023-07-20T13:26:59;1.38;;;1.25;;
21816;SDS011;13247;47.504;7.382;2023-07-20T13:29:44;2.95;;;1.30;;
21816;SDS011;13247;47.504;7.382;2023-07-20T13:32:29;5.55;;;1.70;;
21816;SDS011;13247;47.504;7.382;2023-07-20T13:35:13;2.47;;;1.33;;
21816;SDS011;13247;47.504;7.382;2023-07-20T13:37:58;2.78;;;1.42;;
21816;SDS011;13247;47.504;7.382;2023-07-20T13:40:43;3.97;;;1.65;;
21816;SDS011;13247;47.504;7.382;2023-07-20T13:43:28;2.92;;;1.30;;
21816;SDS011;13247;47.504;7.382;2023-07-20T13:46:12;3.60;;;1.42;;
21816;SDS011;13247;47.504;7.382;2023-07-20T13:48:57;1.48;;;1.23;;
21816;SDS011;13247;47.504;7.382;2023-07-20T13:51:42;9.63;;;1.70;;
21816;SDS011;13247;47.504;7.382;2023-07-20T13:54:27;3.10;;;1.25;;
21816;SDS011;13247;47.504;7.382;2023-07-20T13:57:12;4.85;;;1.15;;
21816;SDS011;13247;47.504;7.382;2023-07-20T13:59:57;3.17;;;1.50;;
21816;SDS011;13247;47.504;7.382;2023-07-20T14:02:43;3.72;;;1.27;;
21816;SDS011;13247;47.504;7.382;2023-07-20T14:05:28;3.83;;;1.50;;
21816;SDS011;13247;47.504;7.382;2023-07-20T14:08:13;5.65;;;1.35;;
21816;SDS011;13247;47.504;7.382;2023-07-20T14:10:58;3.28;;;1.38;;
21816;SDS011;13247;47.504;7.382;2023-07-20T14:13:42;1.95;;;1.13;;
21816;SDS011;13247;47.504;7.382;2023-07-20T14:16:27;3.00;;;1.40;;
21816;SDS011;13247;47.504;7.382;2023-07-20T14:19:11;3.58;;;1.20;;
21816;SDS011;13247;47.504;7.382;2023-07-20T14:21:56;2.80;;;1.27;;
21816;SDS011;13247;47.504;7.382;2023-07-20T14:24:43;3.25;;;1.20;;
21816;SDS011;13247;47.504;7.382;2023-07-20T14:27:28;4.68;;;1.25;;
21816;SDS011;13247;47.504;7.382;2023-07-20T14:30:12;1.73;;;1.25;;
21816;SDS011;13247;47.504;7.382;2023-07-20T14:32:57;3.25;;;1.65;;
21816;SDS011;13247;47.504;7.382;2023-07-20T14:35:42;1.50;;;1.00;;
21816;SDS011;13247;47.504;7.382;2023-07-20T14:38:26;4.78;;;1.50;;
21816;SDS011;13247;47.504;7.382;2023-07-20T14:41:15;1.90;;;1.40;;
21816;SDS011;13247;47.504;7.382;2023-07-20T14:44:00;1.63;;;1.10;;
21816;SDS011;13247;47.504;7.382;2023-07-20T14:46:45;3.75;;;1.30;;
21816;SDS011;13247;47.504;7.382;2023-07-20T14:49:30;1.98;;;1.23;;
21816;SDS011;13247;47.504;7.382;2023-07-20T14:52:15;4.30;;;1.45;;
21816;SDS011;13247;47.504;7.382;2023-07-20T14:55:01;3.25;;;1.50;;
21816;SDS011;13247;47.504;7.382;2023-07-20T14:57:45;2.25;;;1.20;;
21816;SDS011;13247;47.504;7.382;2023-07-20T15:00:31;3.60;;;1.48;;
21816;SDS011;13247;47.504;7.382;2023-07-20T15:03:16;1.85;;;1.30;;
21816;SDS011;13247;47.504;7.382;2023-07-20T15:06:01;3.13;;;1.35;;
21816;SDS011;13247;47.504;7.382;2023-07-20T15:08:46;3.10;;;1.55;;
21816;SDS011;13247;47.504;7.382;2023-07-20T15:11:30;3.65;;;1.38;;
21816;SDS011;13247;47.504;7.382;2023-07-20T15:14:15;3.88;;;1.42;;
21816;SDS011;13247;47.504;7.382;2023-07-20T15:17:00;5.32;;;1.40;;
21816;SDS011;13247;47.504;7.382;2023-07-20T15:19:45;1.85;;;1.10;;
21816;SDS011;13247;47.504;7.382;2023-07-20T15:22:30;2.28;;;1.23;;
21816;SDS011;13247;47.504;7.382;2023-07-20T15:25:16;3.92;;;1.60;;
21816;SDS011;13247;47.504;7.382;2023-07-20T15:28:01;3.28;;;1.38;;
21816;SDS011;13247;47.504;7.382;2023-07-20T15:30:45;2.67;;;1.40;;
21816;SDS011;13247;47.504;7.382;2023-07-20T15:33:31;8.32;;;1.52;;
21816;SDS011;13247;47.504;7.382;2023-07-20T15:36:15;1.63;;;1.25;;
21816;SDS011;13247;47.504;7.382;2023-07-20T15:39:00;5.35;;;1.58;;
21816;SDS011;13247;47.504;7.382;2023-07-20T15:41:47;3.97;;;1.40;;
21816;SDS011;13247;47.504;7.382;2023-07-20T15:44:32;2.42;;;1.15;;
21816;SDS011;13247;47.504;7.382;2023-07-20T15:47:17;4.63;;;1.60;;
21816;SDS011;13247;47.504;7.382;2023-07-20T15:50:02;2.15;;;1.33;;
21816;SDS011;13247;47.504;7.382;2023-07-20T15:52:47;2.80;;;1.25;;
21816;SDS011;13247;47.504;7.382;2023-07-20T15:55:32;2.72;;;1.38;;
21816;SDS011;13247;47.504;7.382;2023-07-20T15:58:17;3.78;;;1.30;;
21816;SDS011;13247;47.504;7.382;2023-07-20T16:01:02;1.98;;;1.20;;
21816;SDS011;13247;47.504;7.382;2023-07-20T16:03:46;1.40;;;1.30;;
21816;SDS011;13247;47.504;7.382;2023-07-20T16:06:31;3.38;;;1.27;;
21816;SDS011;13247;47.504;7.382;2023-07-20T16:09:18;2.10;;;1.25;;
21816;SDS011;13247;47.504;7.382;2023-07-20T16:12:05;3.30;;;1.55;;
21816;SDS011;13247;47.504;7.382;2023-07-20T16:14:49;1.98;;;1.27;;
21816;SDS011;13247;47.504;7.382;2023-07-20T16:17:34;3.65;;;1.45;;
21816;SDS011;13247;47.504;7.382;2023-07-20T16:20:19;4.00;;;1.10;;
21816;SDS011;13247;47.504;7.382;2023-07-20T16:23:04;3.22;;;1.20;;
21816;SDS011;13247;47.504;7.382;2023-07-20T16:25:49;1.60;;;1.38;;
21816;SDS011;13247;47.504;7.382;2023-07-20T16:28:35;3.30;;;1.30;;
21816;SDS011;13247;47.504;7.382;2023-07-20T16:31:20;4.28;;;1.52;;
21816;SDS011;13247;47.504;7.382;2023-07-20T16:34:04;3.67;;;1.50;;
21816;SDS011;13247;47.504;7.382;2023-07-20T16:36:50;6.25;;;1.35;;
21816;SDS011;13247;47.504;7.382;2023-07-20T16:39:34;1.92;;;1.33;;
21816;SDS011;13247;47.504;7.382;2023-07-20T16:42:23;2.45;;;1.65;;
21816;SDS011;13247;47.504;7.382;2023-07-20T16:45:09;3.90;;;1.30;;
21816;SDS011;13247;47.504;7.382;2023-07-20T16:47:53;9.95;;;1.40;;
21816;SDS011;13247;47.504;7.382;2023-07-20T16:50:39;1.35;;;1.02;;